Time;durP1;ratioP1;P1;durP2;ratioP2;P2;SDS_P1;SDS_P2;PMS_P1;PMS_P2;Temp;Humidity;BMP_temperature;BMP_pressure;BME280_temperature;BME280_humidity;BME280_pressure;Samples;Min_cycle;Max_cycle;Signal;HPM_P1;HPM_P2
2022/05/28 00:01:17;;;;;;;;;8.33;8.33;;;;;16.99;50.63;101948.13;5038113;28;45289;-74
2022/05/28 00:03:43;;;;;;;;;8.33;6.67;;;;;17.00;50.98;101951.66;5055173;28;45474;-77
2022/05/28 00:06:16;;;;;;;;;10.67;9.33;;;;;16.98;51.48;101951.81;5039833;28;45528;-75
2022/05/28 00:08:42;;;;;;;;;11.33;9.00;;;;;16.99;52.18;101941.91;5040416;28;45422;-74
2022/05/28 00:11:28;;;;;;;;;8.00;5.67;;;;;16.37;52.03;101841.69;5038428;28;45675;-77
2022/05/28 00:13:54;;;;;;;;;7.00;7.00;;;;;16.35;52.73;101844.53;5055271;28;45377;-75
2022/05/28 00:16:19;;;;;;;;;7.00;7.00;;;;;16.90;52.33;101935.63;5038105;28;45338;-77
2022/05/28 00:18:46;;;;;;;;;9.33;9.00;;;;;16.78;52.53;101909.19;5038879;28;45318;-77
2022/05/28 00:21:13;;;;;;;;;8.33;7.33;;;;;16.80;52.36;101918.75;5054838;28;45626;-74
2022/05/28 00:23:40;;;;;;;;;12.33;11.33;;;;;16.23;52.45;101808.22;5039488;28;45581;-76
2022/05/28 00:26:06;;;;;;;;;12.33;11.67;;;;;16.79;52.37;101905.50;5037914;28;45378;-75
2022/05/28 00:28:32;;;;;;;;;7.00;7.00;;;;;16.85;51.84;101918.31;5037367;28;48138;-76
2022/05/28 00:30:59;;;;;;;;;11.00;7.33;;;;;16.68;51.79;101899.38;5031174;28;45883;-77
2022/05/28 00:33:25;;;;;;;;;13.67;11.67;;;;;16.75;51.93;101910.34;5020496;28;45464;-75
2022/05/28 00:35:51;;;;;;;;;15.67;13.00;;;;;16.65;52.12;101893.44;5018507;28;45337;-75
2022/05/28 00:38:17;;;;;;;;;17.33;15.00;;;;;14.63;51.77;101558.91;5027048;28;47288;-77
2022/05/28 00:40:48;;;;;;;;;19.00;17.67;;;;;16.82;51.99;101907.84;5038870;28;45289;-77
2022/05/28 00:43:13;;;;;;;;;11.67;10.67;;;;;16.62;51.84;101873.13;5038639;28;45528;-75
2022/05/28 00:45:40;;;;;;;;;10.67;9.33;;;;;16.76;51.98;101901.28;5029557;28;45371;-75
2022/05/28 00:48:06;;;;;;;;;8.33;6.67;;;;;16.89;51.93;101925.06;5025332;28;46265;-77
2022/05/28 00:50:34;;;;;;;;;12.67;9.33;;;;;16.78;51.92;101904.66;5019579;28;45503;-75
2022/05/28 00:53:00;;;;;;;;;11.33;9.00;;;;;16.23;52.06;101820.81;5017414;28;45571;-76
2022/05/28 00:55:26;;;;;;;;;8.67;8.67;;;;;16.76;52.24;101909.34;5018676;28;45339;-76
2022/05/28 00:57:51;;;;;;;;;9.67;9.00;;;;;16.73;52.15;101899.75;5033976;28;47190;-75
2022/05/28 01:00:20;;;;;;;;;14.33;11.00;;;;;16.65;52.11;101907.72;5018816;28;45475;-75
2022/05/28 01:03:04;;;;;;;;;9.67;9.00;;;;;16.80;51.70;101916.06;5037443;28;45351;-75
2022/05/28 01:05:47;;;;;;;;;10.00;9.33;;;;;16.63;52.08;101896.28;5037458;28;45677;-76
2022/05/28 01:08:31;;;;;;;;;14.33;13.33;;;;;16.67;52.17;101913.81;5037811;28;48509;-77
2022/05/28 01:11:07;;;;;;;;;11.67;11.67;;;;;16.66;52.29;101905.88;5038857;28;45430;-77
2022/05/28 01:13:39;;;;;;;;;8.67;7.67;;;;;16.62;52.05;101910.72;5037185;28;45302;-78
2022/05/28 01:16:30;;;;;;;;;14.67;13.00;;;;;16.63;52.14;101907.03;5020503;28;45337;-76
2022/05/28 01:19:19;;;;;;;;;8.33;7.67;;;;;16.58;52.25;101913.84;5022389;28;48397;-75
2022/05/28 01:22:07;;;;;;;;;21.33;21.00;;;;;16.57;52.42;101913.00;5007770;28;45540;-79
2022/05/28 01:24:36;;;;;;;;;10.67;9.67;;;;;16.56;52.41;101905.09;5018210;28;45450;-76
2022/05/28 01:27:07;;;;;;;;;15.67;14.67;;;;;16.11;52.51;101831.75;5017295;28;45239;-75
2022/05/28 01:29:42;;;;;;;;;12.67;9.00;;;;;15.95;52.36;101799.41;5018423;28;45404;-77
2022/05/28 01:32:09;;;;;;;;;11.33;8.67;;;;;16.42;51.80;101869.78;5016661;28;46140;-77
2022/05/28 01:34:36;;;;;;;;;10.67;9.00;;;;;16.23;52.20;101828.84;5018248;28;45315;-76
2022/05/28 01:37:02;;;;;;;;;14.33;13.33;;;;;16.60;52.45;101893.91;5016884;28;45405;-76
2022/05/28 01:39:29;;;;;;;;;11.00;8.00;;;;;16.06;52.22;101817.97;5017798;28;45745;-75
2022/05/28 01:41:56;;;;;;;;;11.00;9.67;;;;;15.57;52.44;101729.97;5017781;28;45492;-75
2022/05/28 01:44:23;;;;;;;;;9.33;9.00;;;;;15.99;51.83;101795.41;5016716;28;45456;-75
2022/05/28 01:46:50;;;;;;;;;8.33;6.67;;;;;15.65;51.87;101757.72;5017429;28;45248;-75
2022/05/28 01:49:19;;;;;;;;;16.33;13.67;;;;;15.94;52.06;101791.50;5016375;28;48550;-74
2022/05/28 01:51:59;;;;;;;;;7.33;6.33;;;;;15.09;52.12;101646.25;5018266;28;45432;-77
2022/05/28 01:54:38;;;;;;;;;7.33;5.00;;;;;16.00;52.05;101801.63;5017287;28;45521;-77
2022/05/28 01:57:04;;;;;;;;;9.33;8.33;;;;;16.12;52.36;101830.75;5033539;28;45599;-76
2022/05/28 01:59:33;;;;;;;;;11.67;10.33;;;;;15.70;52.26;101758.09;5017957;28;45555;-76
2022/05/28 02:02:01;;;;;;;;;9.33;7.67;;;;;16.31;52.84;101853.06;5029444;28;45306;-74
2022/05/28 02:04:28;;;;;;;;;10.33;10.33;;;;;16.56;51.94;101889.84;5037604;28;45252;-76
2022/05/28 02:06:53;;;;;;;;;16.67;13.33;;;;;15.52;52.01;101723.22;5037755;28;45239;-75
2022/05/28 02:09:29;;;;;;;;;18.67;18.67;;;;;16.31;52.24;101870.00;5035840;28;47387;-77
2022/05/28 02:12:13;;;;;;;;;11.33;11.33;;;;;16.45;52.41;101878.53;5036573;28;45337;-76
2022/05/28 02:14:48;;;;;;;;;9.00;7.33;;;;;16.46;52.62;101862.25;5036158;28;45295;-77
2022/05/28 02:17:30;;;;;;;;;9.33;8.67;;;;;16.51;52.36;101878.72;5030464;28;45190;-75
2022/05/28 02:20:15;;;;;;;;;6.67;5.00;;;;;16.52;52.57;101877.72;5037305;28;47206;-74
2022/05/28 02:23:01;;;;;;;;;11.33;8.67;;;;;16.03;52.61;101779.88;5036121;28;45245;-76
2022/05/28 02:25:38;;;;;;;;;9.67;6.67;;;;;16.58;52.75;101874.41;5035904;28;45258;-76
2022/05/28 02:28:05;;;;;;;;;10.67;9.00;;;;;16.59;52.78;101862.69;5037269;28;45522;-74
2022/05/28 02:30:32;;;;;;;;;10.00;9.33;;;;;16.46;52.63;101846.16;5033890;28;48582;-76
2022/05/28 02:33:02;;;;;;;;;7.67;6.67;;;;;16.61;52.63;101873.25;5017298;28;45418;-76
2022/05/28 02:35:28;;;;;;;;;10.00;8.33;;;;;16.42;52.66;101842.09;5034278;28;45589;-74
2022/05/28 02:37:54;;;;;;;;;8.33;8.33;;;;;16.47;52.75;101847.84;5018858;28;45454;-76
2022/05/28 02:40:19;;;;;;;;;10.33;9.00;;;;;16.53;52.40;101852.56;5016021;28;47308;-74
2022/05/28 02:42:44;;;;;;;;;10.00;6.00;;;;;15.57;52.66;101697.78;5015752;28;46039;-76
2022/05/28 02:45:10;;;;;;;;;5.00;5.00;;;;;15.19;52.78;101635.47;5017549;28;45868;-75
2022/05/28 02:47:36;;;;;;;;;12.67;8.67;;;;;16.13;52.73;101786.84;5015755;28;45313;-74
2022/05/28 02:50:01;;;;;;;;;2.33;1.33;;;;;16.18;52.72;101796.25;5017113;28;46241;-77
2022/05/28 02:52:26;;;;;;;;;11.67;7.33;;;;;16.44;52.61;101840.09;5016980;28;45254;-74
2022/05/28 02:54:52;;;;;;;;;9.00;7.67;;;;;16.28;52.71;101818.50;5015560;28;45345;-76
2022/05/28 02:57:17;;;;;;;;;8.67;8.67;;;;;16.28;52.48;101811.28;5016599;28;45310;-78
2022/05/28 02:59:43;;;;;;;;;4.33;4.33;;;;;16.46;53.10;101835.41;5016790;28;45739;-78
2022/05/28 03:02:08;;;;;;;;;10.00;7.33;;;;;16.29;53.00;101809.44;5022704;28;45398;-76
2022/05/28 03:04:34;;;;;;;;;11.00;9.33;;;;;16.17;53.08;101787.34;5017235;28;45565;-76
2022/05/28 03:06:59;;;;;;;;;9.00;7.00;;;;;16.09;53.30;101789.97;5032496;28;45543;-76
2022/05/28 03:09:25;;;;;;;;;9.67;8.33;;;;;16.28;53.39;101816.66;5015379;28;48607;-76
2022/05/28 03:11:50;;;;;;;;;9.00;8.33;;;;;16.39;53.17;101858.47;5016620;28;45243;-76
2022/05/28 03:14:17;;;;;;;;;8.00;6.00;;;;;16.38;53.28;101827.28;5015335;28;45307;-77
2022/05/28 03:16:43;;;;;;;;;11.33;10.00;;;;;16.27;53.14;101809.59;5015717;28;45242;-77
2022/05/28 03:19:08;;;;;;;;;7.33;7.33;;;;;16.24;53.39;101812.59;5016428;28;45872;-76
2022/05/28 03:21:34;;;;;;;;;7.00;6.33;;;;;16.43;53.11;101830.34;5015371;28;45274;-77
2022/05/28 03:24:00;;;;;;;;;6.67;6.33;;;;;16.29;53.40;101810.28;5016849;28;45536;-75
2022/05/28 03:26:27;;;;;;;;;9.00;6.67;;;;;16.50;53.30;101844.84;5032113;28;45597;-77
2022/05/28 03:28:56;;;;;;;;;6.33;6.33;;;;;16.21;53.22;101806.66;5016141;28;46383;-76
2022/05/28 03:31:24;;;;;;;;;12.00;8.50;;;;;15.71;53.22;101727.63;5017903;28;45482;-75
2022/05/28 03:33:50;;;;;;;;;14.67;10.00;;;;;15.95;53.10;101767.22;5031684;28;45254;-76
2022/05/28 03:36:16;;;;;;;;;9.00;8.67;;;;;16.42;53.43;101845.63;5015084;28;45568;-77
2022/05/28 03:38:41;;;;;;;;;7.67;6.00;;;;;16.45;53.23;101849.00;5014918;28;46896;-76
2022/05/28 03:41:07;;;;;;;;;14.33;11.67;;;;;16.36;53.35;101840.00;5016424;28;45378;-76
2022/05/28 03:43:33;;;;;;;;;11.67;9.00;;;;;16.28;53.36;101818.50;5014777;28;45596;-78
2022/05/28 03:45:58;;;;;;;;;10.33;6.33;;;;;16.45;53.57;101849.84;5015553;28;45285;-76
2022/05/28 03:48:25;;;;;;;;;14.67;12.67;;;;;15.84;53.64;101743.34;5016618;28;48685;-74
2022/05/28 03:50:50;;;;;;;;;9.33;7.33;;;;;16.44;53.69;101856.19;5020804;28;45289;-74
2022/05/28 03:53:16;;;;;;;;;9.00;6.67;;;;;16.03;53.74;101786.09;5015951;28;45369;-74
2022/05/28 03:55:42;;;;;;;;;11.00;9.00;;;;;16.40;53.92;101846.75;5016383;28;45249;-75
2022/05/28 03:58:08;;;;;;;;;8.00;7.33;;;;;16.09;53.96;101806.91;5031672;28;47640;-77
2022/05/28 04:00:34;;;;;;;;;10.33;9.67;;;;;16.36;53.79;101856.13;5017765;28;45475;-75
2022/05/28 04:02:59;;;;;;;;;9.67;7.33;;;;;15.40;53.95;101708.34;5035859;28;45410;-76
2022/05/28 04:05:26;;;;;;;;;14.00;10.33;;;;;16.32;54.46;101871.69;5036333;28;45298;-76
2022/05/28 04:07:51;;;;;;;;;7.00;7.00;;;;;16.11;54.47;101831.75;5034768;28;48581;-75
2022/05/28 04:10:17;;;;;;;;;13.00;10.00;;;;;16.09;54.67;101828.38;5022988;28;45877;-78
2022/05/28 04:12:43;;;;;;;;;10.00;8.00;;;;;15.75;54.34;101779.09;5034653;28;45343;-77
2022/05/28 04:15:10;;;;;;;;;7.67;7.67;;;;;15.55;54.58;101750.72;5036437;28;45508;-75
2022/05/28 04:17:35;;;;;;;;;10.00;9.00;;;;;16.11;54.73;101850.53;5021001;28;46644;-75
2022/05/28 04:20:02;;;;;;;;;9.33;8.67;;;;;15.18;54.85;101682.84;5019746;28;45278;-74
2022/05/28 04:22:27;;;;;;;;;10.00;8.67;;;;;15.90;54.87;101801.72;5017994;28;45363;-75
2022/05/28 04:24:53;;;;;;;;;11.33;8.67;;;;;15.48;54.91;101748.66;5019523;28;45293;-76
2022/05/28 04:27:18;;;;;;;;;10.00;9.67;;;;;16.31;54.95;101882.56;5034387;28;46511;-76
2022/05/28 04:29:43;;;;;;;;;12.67;9.67;;;;;15.98;55.38;101839.31;5034257;28;45607;-76
2022/05/28 04:32:09;;;;;;;;;9.00;9.00;;;;;15.58;54.87;101774.53;5023803;28;45312;-74
2022/05/28 04:34:34;;;;;;;;;9.67;9.00;;;;;16.22;55.16;101886.16;5019136;28;45650;-75
2022/05/28 04:36:59;;;;;;;;;8.67;8.67;;;;;15.88;55.00;101822.47;5017844;28;48432;-76
2022/05/28 04:39:25;;;;;;;;;9.00;9.00;;;;;16.08;55.34;101864.25;5021072;28;45226;-74
2022/05/28 04:41:50;;;;;;;;;10.33;8.67;;;;;15.99;55.12;101846.38;5019419;28;45341;-75
2022/05/28 04:44:15;;;;;;;;;13.67;10.67;;;;;15.95;55.07;101841.47;5019307;28;45311;-75
2022/05/28 04:46:41;;;;;;;;;15.00;11.33;;;;;16.07;55.48;101857.22;5017556;28;48460;-74
2022/05/28 04:49:06;;;;;;;;;9.00;7.00;;;;;16.24;55.01;101894.94;5019006;28;45383;-74
2022/05/28 04:51:32;;;;;;;;;8.00;7.67;;;;;16.29;55.11;101896.16;5019018;28;45447;-77
2022/05/28 04:53:57;;;;;;;;;10.67;9.33;;;;;16.28;55.13;101885.56;5018867;28;45159;-74
2022/05/28 04:56:23;;;;;;;;;24.00;19.67;;;;;16.40;55.07;101890.53;5018426;28;45493;-75
2022/05/28 04:58:48;;;;;;;;;9.00;8.33;;;;;16.43;54.39;101892.09;5018704;28;45416;-75
2022/05/28 05:01:15;;;;;;;;;10.67;8.33;;;;;16.32;54.45;101897.69;5018809;28;45361;-75
2022/05/28 05:03:41;;;;;;;;;4.67;4.67;;;;;16.25;54.54;101864.41;5033982;28;45463;-74
2022/05/28 05:06:07;;;;;;;;;11.33;9.67;;;;;16.34;54.68;101864.31;5018392;28;46261;-75
2022/05/28 05:08:32;;;;;;;;;13.33;11.67;;;;;16.45;54.61;101887.41;5017922;28;45186;-77
2022/05/28 05:10:57;;;;;;;;;9.33;8.33;;;;;16.33;54.60;101884.09;5018779;28;45431;-75
2022/05/28 05:13:24;;;;;;;;;9.00;8.67;;;;;16.26;54.52;101855.38;5019021;28;45224;-74
2022/05/28 05:15:49;;;;;;;;;9.33;9.00;;;;;16.41;54.21;101864.53;5019071;28;45720;-78
2022/05/28 05:18:15;;;;;;;;;13.33;10.00;;;;;16.62;53.93;101891.94;5018803;28;45232;-76
2022/05/28 05:20:40;;;;;;;;;9.00;8.67;;;;;16.43;54.36;101868.78;5018359;28;45288;-78
2022/05/28 05:23:06;;;;;;;;;8.67;8.33;;;;;16.41;54.07;101845.75;5029704;28;45641;-74
2022/05/28 05:25:32;;;;;;;;;10.67;9.33;;;;;16.37;54.05;101833.66;5037977;28;45627;-76
2022/05/28 05:27:57;;;;;;;;;12.67;8.67;;;;;16.58;54.09;101861.00;5037612;28;45546;-74
2022/05/28 05:30:23;;;;;;;;;25.67;24.33;;;;;16.86;53.90;101895.81;5030688;28;45394;-75
2022/05/28 05:32:48;;;;;;;;;8.00;8.00;;;;;16.43;53.58;101814.25;5033437;28;45357;-76
2022/05/28 05:35:14;;;;;;;;;11.67;11.00;;;;;16.53;53.57;101836.47;5017502;28;46280;-76
2022/05/28 05:37:39;;;;;;;;;11.67;11.33;;;;;16.94;53.16;101890.50;5032706;28;45365;-76
2022/05/28 05:40:05;;;;;;;;;11.67;10.00;;;;;16.86;53.46;101877.03;5033069;28;45365;-76
2022/05/28 05:42:31;;;;;;;;;12.67;10.33;;;;;16.63;53.21;101825.66;5033132;28;45615;-76
2022/05/28 05:44:57;;;;;;;;;9.67;9.67;;;;;16.72;52.74;101830.09;5016513;28;48564;-76
2022/05/28 05:47:22;;;;;;;;;11.33;10.33;;;;;17.06;52.59;101874.97;5017686;28;45347;-76
2022/05/28 05:49:47;;;;;;;;;13.33;10.00;;;;;16.89;52.59;101841.78;5017883;28;45276;-76
2022/05/28 05:52:13;;;;;;;;;9.33;9.33;;;;;16.07;52.04;101714.19;5034723;28;45879;-76
2022/05/28 05:54:38;;;;;;;;;9.67;7.67;;;;;16.75;52.42;101839.66;5018142;28;46033;-75
2022/05/28 05:57:04;;;;;;;;;9.00;8.00;;;;;16.42;51.94;101758.91;5016311;28;45361;-76
2022/05/28 05:59:30;;;;;;;;;14.67;9.33;;;;;17.50;51.20;101878.38;5016265;28;45358;-74
2022/05/28 06:01:55;;;;;;;;;11.00;8.67;;;;;17.97;49.92;101859.06;5024131;28;45397;-75
2022/05/28 06:04:21;;;;;;;;;9.67;8.00;;;;;18.41;48.89;101881.13;5017768;28;45523;-75
2022/05/28 06:06:47;;;;;;;;;13.33;11.33;;;;;18.58;48.14;101852.38;5033795;28;45296;-75
2022/05/28 06:09:12;;;;;;;;;11.33;10.00;;;;;19.13;47.24;101874.88;5045692;28;47165;-76
2022/05/28 06:11:38;;;;;;;;;12.67;9.00;;;;;19.77;45.94;101871.28;5036229;28;45538;-75
2022/05/28 06:14:03;;;;;;;;;15.00;10.33;;;;;19.44;44.26;101756.28;5025358;28;45664;-75
2022/05/28 06:16:29;;;;;;;;;9.67;8.67;;;;;20.36;43.76;101845.41;5016056;28;46106;-77
2022/05/28 06:18:54;;;;;;;;;8.00;6.33;;;;;21.00;42.36;101878.28;5016116;28;45358;-75
2022/05/28 06:21:20;;;;;;;;;13.33;11.00;;;;;21.20;42.65;101884.81;5016140;28;45283;-79
2022/05/28 06:23:46;;;;;;;;;10.00;8.33;;;;;21.46;41.72;101879.00;5029093;28;45716;-74
2022/05/28 06:26:12;;;;;;;;;9.67;9.67;;;;;21.82;41.51;101897.09;5036017;28;45769;-74
2022/05/28 06:28:38;;;;;;;;;14.33;13.67;;;;;22.14;39.92;101882.31;5038179;28;45502;-77
2022/05/28 06:31:06;;;;;;;;;11.67;11.67;;;;;22.57;39.94;101888.56;5037999;28;45348;-76
2022/05/28 06:33:34;;;;;;;;;11.67;9.33;;;;;23.12;39.13;101886.94;5051258;28;47821;-76
2022/05/28 06:36:01;;;;;;;;;9.00;7.00;;;;;23.34;36.91;101858.66;5037077;28;45363;-76
2022/05/28 06:38:26;;;;;;;;;20.00;19.00;;;;;23.60;37.46;101871.53;5037085;28;45307;-76
2022/05/28 06:40:53;;;;;;;;;14.00;13.67;;;;;24.10;36.33;101893.03;5037885;28;45399;-77
2022/05/28 06:43:18;;;;;;;;;10.33;9.00;;;;;24.21;35.86;101851.66;5036201;28;48094;-76
2022/05/28 06:45:44;;;;;;;;;13.33;13.00;;;;;24.68;34.75;101855.28;5035556;28;45803;-81
2022/05/28 06:48:10;;;;;;;;;20.67;20.33;;;;;24.78;34.53;101866.56;5037698;28;45345;-77
2022/05/28 06:53:20;;;;;;;;;11.00;8.67;;;;;25.20;34.36;101865.25;5038487;28;45849;-77
2022/05/28 06:55:46;;;;;;;;;11.67;9.00;;;;;25.70;33.75;101888.16;5037261;28;45473;-77
2022/05/28 06:58:12;;;;;;;;;12.00;11.00;;;;;25.62;33.92;101861.13;5052220;28;45403;-76
2022/05/28 07:00:38;;;;;;;;;8.67;8.67;;;;;25.43;34.00;101803.00;5031042;28;45401;-78
2022/05/28 07:03:04;;;;;;;;;15.00;10.67;;;;;25.20;34.11;101801.81;5027527;28;46915;-74
2022/05/28 07:05:30;;;;;;;;;11.67;11.33;;;;;24.78;34.53;101765.91;5016493;28;45454;-77
2022/05/28 07:07:56;;;;;;;;;9.00;8.33;;;;;25.54;34.68;101845.03;5016709;28;45287;-75
2022/05/28 07:10:21;;;;;;;;;13.33;12.00;;;;;25.66;34.75;101826.97;5023440;28;45677;-77
2022/05/28 07:12:47;;;;;;;;;13.00;12.00;;;;;25.13;33.76;101752.88;5036627;28;45713;-76
2022/05/28 07:15:13;;;;;;;;;15.00;12.67;;;;;25.37;33.83;101805.72;5034665;28;45324;-76
2022/05/28 07:17:40;;;;;;;;;15.67;12.00;;;;;25.77;34.08;101886.22;5036675;28;45318;-76
2022/05/28 07:20:06;;;;;;;;;14.67;11.33;;;;;25.99;33.71;101880.44;5035139;28;45470;-76
2022/05/28 07:22:32;;;;;;;;;10.00;8.33;;;;;25.95;33.42;101797.47;5032738;28;46552;-77
2022/05/28 07:24:57;;;;;;;;;9.00;8.67;;;;;25.93;32.19;101720.56;5030037;28;45351;-78
2022/05/28 07:27:23;;;;;;;;;12.33;8.67;;;;;26.93;32.40;101825.81;5053255;28;45418;-78
2022/05/28 07:29:48;;;;;;;;;11.67;10.00;;;;;27.85;30.74;101870.34;5019168;28;45590;-75
2022/05/28 07:32:13;;;;;;;;;12.00;12.00;;;;;27.78;30.74;101794.97;5016949;28;45523;-76
2022/05/28 07:34:39;;;;;;;;;16.00;13.00;;;;;28.54;29.89;101848.06;5016449;28;45337;-77
2022/05/28 07:37:04;;;;;;;;;10.00;9.00;;;;;28.35;29.31;101746.13;5017045;28;45778;-78
2022/05/28 07:39:30;;;;;;;;;10.33;10.00;;;;;29.07;28.97;101809.63;5015974;28;45444;-78
2022/05/28 07:41:55;;;;;;;;;17.00;13.33;;;;;29.37;28.47;101799.31;5016902;28;45252;-78
2022/05/28 07:44:21;;;;;;;;;8.33;7.00;;;;;29.98;27.25;101827.06;5018057;28;45508;-77
2022/05/28 07:46:47;;;;;;;;;8.33;5.33;;;;;30.16;27.12;101842.50;5020193;28;45214;-78
2022/05/28 07:49:12;;;;;;;;;9.00;9.00;;;;;29.72;27.19;101726.25;5020415;28;45338;-77
2022/05/28 07:51:38;;;;;;;;;15.67;11.00;;;;;29.88;26.38;101761.09;5020182;28;46101;-75
2022/05/28 07:54:05;;;;;;;;;7.00;7.00;;;;;30.35;29.53;101841.19;5019770;28;45256;-78
2022/05/28 07:56:31;;;;;;;;;16.00;11.00;;;;;29.73;29.03;101747.94;5018835;28;45243;-79
2022/05/28 07:58:59;;;;;;;;;11.00;9.67;;;;;29.97;27.18;101820.75;5048993;28;45669;-79
2022/05/28 08:01:30;;;;;;;;;10.33;8.67;;;;;30.25;28.71;101841.03;5021180;28;47526;-78
2022/05/28 08:03:59;;;;;;;;;12.67;9.00;;;;;30.32;27.23;101838.94;5036120;28;45592;-82
2022/05/28 08:06:25;;;;;;;;;8.33;8.33;;;;;29.90;27.34;101814.59;5049370;28;45466;-78
2022/05/28 08:08:51;;;;;;;;;11.00;10.00;;;;;29.83;29.85;101789.22;5028101;28;45316;-78
2022/05/28 08:11:17;;;;;;;;;25.00;23.00;;;;;30.35;27.58;101835.69;5036974;28;47760;-77
2022/05/28 08:13:43;;;;;;;;;10.33;9.67;;;;;30.18;27.57;101796.44;5031426;28;45508;-76
2022/05/28 08:16:08;;;;;;;;;16.00;15.00;;;;;30.33;27.59;101815.06;5034774;28;45163;-76
2022/05/28 08:18:36;;;;;;;;;12.00;10.67;;;;;30.56;26.25;101817.63;5039932;28;45233;-75
2022/05/28 08:23:47;;;;;;;;;12.00;10.67;;;;;30.64;26.77;101817.25;5033343;28;45456;-77
2022/05/28 08:26:15;;;;;;;;;16.33;14.67;;;;;30.71;25.65;101839.88;5056798;28;45450;-76
2022/05/28 08:28:41;;;;;;;;;14.00;12.00;;;;;30.25;26.79;101780.69;5039089;28;45619;-78
2022/05/28 08:31:07;;;;;;;;;11.67;9.67;;;;;30.56;26.60;101834.09;5034954;28;45611;-75
2022/05/28 08:33:33;;;;;;;;;13.00;10.33;;;;;29.65;27.11;101661.50;5020492;28;45270;-82
2022/05/28 08:35:59;;;;;;;;;17.00;16.00;;;;;30.72;25.96;101813.25;5025348;28;45310;-75
2022/05/28 08:38:25;;;;;;;;;13.00;12.33;;;;;30.66;25.61;101806.03;5019538;28;45282;-74
2022/05/28 08:40:56;;;;;;;;;11.33;10.33;;;;;30.44;25.39;101784.00;5027931;28;46539;-76
2022/05/28 08:43:26;;;;;;;;;12.33;10.00;;;;;30.62;25.32;101796.59;5035492;28;45486;-76
2022/05/28 08:45:51;;;;;;;;;7.67;7.67;;;;;30.75;24.92;101815.47;5037357;28;45611;-75
2022/05/28 08:48:26;;;;;;;;;10.67;8.33;;;;;30.27;25.01;101738.19;5039657;28;45318;-78
2022/05/28 08:51:04;;;;;;;;;10.00;9.33;;;;;30.46;24.89;101782.66;5037169;28;45315;-76
2022/05/28 08:53:35;;;;;;;;;17.00;11.00;;;;;29.39;24.85;101612.78;5037278;28;45332;-78
2022/05/28 08:56:03;;;;;;;;;14.33;10.00;;;;;30.47;25.95;101721.19;5037106;28;45521;-77
2022/05/28 08:58:32;;;;;;;;;16.33;13.33;;;;;31.47;24.71;101812.59;5038317;28;45568;-76
2022/05/28 09:00:58;;;;;;;;;21.67;17.00;;;;;30.46;24.50;101596.06;5041323;28;45318;-77
2022/05/28 09:03:28;;;;;;;;;17.33;13.33;;;;;31.76;23.73;101815.97;5038325;28;45274;-74
2022/05/28 09:06:16;;;;;;;;;14.67;13.33;;;;;30.79;24.57;101773.53;5039406;28;45416;-77
2022/05/28 09:08:48;;;;;;;;;15.00;11.67;;;;;30.24;25.84;101768.88;5037460;28;45579;-76
2022/05/28 09:11:34;;;;;;;;;16.00;14.00;;;;;29.55;26.18;101738.03;5025479;28;47500;-77
2022/05/28 09:14:13;;;;;;;;;14.33;11.67;;;;;28.76;27.66;101715.88;5015937;28;45454;-76
2022/05/28 09:16:41;;;;;;;;;10.33;10.00;;;;;29.21;27.59;101760.88;5037525;28;45277;-76
2022/05/28 09:19:17;;;;;;;;;9.33;8.00;;;;;27.53;25.79;101432.63;5035326;28;45530;-75
2022/05/28 09:21:45;;;;;;;;;12.67;9.33;;;;;29.95;26.20;101800.16;5026123;28;47691;-77
2022/05/28 09:24:18;;;;;;;;;12.33;11.00;;;;;29.69;26.46;101804.34;5031121;28;45917;-77
2022/05/28 09:27:03;;;;;;;;;16.33;15.00;;;;;29.09;27.17;101788.31;5037494;28;45474;-77
2022/05/28 09:29:28;;;;;;;;;12.00;11.33;;;;;28.87;27.33;101800.97;5018746;28;45584;-77
2022/05/28 09:32:26;;;;;;;;;12.33;12.00;;;;;28.85;27.50;101806.66;5018768;28;45463;-77
2022/05/28 09:35:02;;;;;;;;;10.67;10.67;;;;;26.98;27.84;101533.94;5018929;28;45503;-77
2022/05/28 09:37:44;;;;;;;;;12.67;9.33;;;;;28.25;28.44;101699.38;5042408;28;45362;-77
2022/05/28 09:40:25;;;;;;;;;13.00;11.67;;;;;29.76;26.90;101795.97;5038533;28;45371;-77
2022/05/28 09:43:05;;;;;;;;;11.33;11.00;;;;;30.31;25.88;101789.81;5026213;28;46341;-76
2022/05/28 09:45:49;;;;;;;;;10.67;9.00;;;;;30.45;26.09;101711.56;5018523;28;45473;-76
2022/05/28 09:48:24;;;;;;;;;15.33;11.33;;;;;30.98;24.75;101762.25;5024067;28;45547;-76
2022/05/28 09:50:50;;;;;;;;;19.00;17.00;;;;;30.88;24.84;101785.75;5029939;28;45710;-76
2022/05/28 09:56:29;;;;;;;;;12.00;11.67;;;;;29.08;25.05;101745.59;5022630;28;45445;-77
2022/05/28 09:58:54;;;;;;;;;9.33;8.00;;;;;28.76;26.87;101776.06;5024535;28;45383;-79
2022/05/28 10:01:24;;;;;;;;;14.00;12.33;;;;;28.19;27.23;101737.53;5021031;28;45529;-77
2022/05/28 10:06:47;;;;;;;;;10.33;9.33;;;;;27.65;27.23;101719.50;5030348;28;45371;-79
2022/05/28 10:09:18;;;;;;;;;11.00;9.33;;;;;27.64;27.85;101750.63;5035748;28;45505;-75
2022/05/28 10:12:20;;;;;;;;;13.67;12.67;;;;;27.20;27.39;101757.28;5032556;28;45303;-77
2022/05/28 10:15:01;;;;;;;;;9.33;9.00;;;;;26.42;28.65;101740.72;5019632;28;45345;-79
2022/05/28 10:17:29;;;;;;;;;12.33;11.00;;;;;25.82;29.54;101674.97;5030582;28;46301;-79
2022/05/28 10:19:57;;;;;;;;;10.00;10.00;;;;;25.93;30.04;101747.81;5017985;28;45331;-78
2022/05/28 10:22:25;;;;;;;;;7.33;7.33;;;;;25.55;30.73;101718.72;5028720;28;46967;-76
2022/05/28 10:25:01;;;;;;;;;10.67;10.00;;;;;25.15;30.06;101708.06;5052495;28;45504;-80
2022/05/28 10:27:35;;;;;;;;;12.33;11.33;;;;;25.17;30.72;101748.66;5037677;28;46337;-84
2022/05/28 10:30:20;;;;;;;;;10.00;8.00;;;;;24.92;31.17;101724.03;5020759;28;45522;-83
2022/05/28 10:32:49;;;;;;;;;7.33;7.33;;;;;24.46;31.58;101651.59;5020020;28;45347;-78
2022/05/28 10:35:19;;;;;;;;;9.00;7.00;;;;;24.82;30.46;101723.63;5022337;28;45573;-76
2022/05/28 10:37:45;;;;;;;;;14.67;10.67;;;;;24.44;31.17;101701.81;5016782;28;45737;-78
2022/05/28 10:40:26;;;;;;;;;16.67;15.67;;;;;24.63;31.50;101743.56;5016846;28;45313;-79
2022/05/28 10:43:03;;;;;;;;;6.00;5.00;;;;;24.63;30.98;101735.41;5018626;28;45531;-77
2022/05/28 10:45:40;;;;;;;;;11.67;9.00;;;;;24.46;27.96;101744.03;5019339;28;48393;-76
2022/05/28 10:48:34;;;;;;;;;7.00;6.00;;;;;24.05;27.65;101697.22;5018096;28;45182;-76
2022/05/28 10:51:11;;;;;;;;;9.67;7.33;;;;;23.93;29.88;101708.69;5016398;28;45396;-78
2022/05/28 10:53:39;;;;;;;;;8.33;8.33;;;;;24.08;31.63;101734.84;5016317;28;45338;-76
2022/05/28 10:56:25;;;;;;;;;11.00;7.00;;;;;23.79;31.32;101679.84;5018034;28;47266;-79
2022/05/28 10:58:59;;;;;;;;;7.67;6.00;;;;;23.96;31.13;101712.88;5016848;28;45765;-77
2022/05/28 11:01:47;;;;;;;;;10.67;9.67;;;;;24.06;31.57;101723.34;5018417;28;45387;-77
2022/05/28 11:04:31;;;;;;;;;14.67;14.67;;;;;24.01;31.23;101725.81;5017668;28;45210;-78
2022/05/28 11:07:19;;;;;;;;;7.33;7.33;;;;;23.87;31.87;101725.84;5016760;28;47334;-77
2022/05/28 11:10:00;;;;;;;;;55.25;44.50;;;;;23.88;32.00;101716.66;5018408;28;45324;-76
2022/05/28 11:12:42;;;;;;;;;10.33;9.00;;;;;23.66;31.47;101674.44;5016629;28;45324;-77
2022/05/28 11:15:30;;;;;;;;;7.33;7.33;;;;;23.76;31.37;101712.03;5017994;28;45384;-77
2022/05/28 11:18:21;;;;;;;;;6.33;6.33;;;;;23.53;31.75;101690.66;5015809;28;48955;-80
2022/05/28 11:21:07;;;;;;;;;9.00;7.67;;;;;23.58;31.67;101688.19;5019863;28;45430;-78
2022/05/28 11:23:50;;;;;;;;;13.33;6.67;;;;;23.43;31.35;101696.50;5022116;28;45423;-77
2022/05/28 11:26:38;;;;;;;;;5.00;5.00;;;;;23.24;32.05;101703.56;5020923;28;45511;-77
2022/05/28 11:29:07;;;;;;;;;7.67;6.00;;;;;23.01;32.61;101703.88;5015314;28;45570;-76
2022/05/28 11:31:43;;;;;;;;;6.00;6.00;;;;;22.97;33.35;101696.34;5021047;28;45463;-79
2022/05/28 11:34:29;;;;;;;;;7.67;7.67;;;;;22.98;33.72;101692.59;5019887;28;45313;-78
2022/05/28 11:37:17;;;;;;;;;3.33;3.33;;;;;23.03;33.13;101696.41;5019500;28;45525;-77
2022/05/28 11:39:58;;;;;;;;;5.67;4.67;;;;;23.14;32.93;101696.84;5018896;28;48090;-78